CST,Max TemperatureF,Mean TemperatureF,Min TemperatureF,Max Dew PointF,MeanDew PointF,Min DewpointF,Max Humidity, Mean Humidity, Min Humidity, Max Sea Level PressureIn, Mean Sea Level PressureIn, Min Sea Level PressureIn, Max VisibilityMiles, Mean VisibilityMiles, Min VisibilityMiles, Max Wind SpeedMPH, Mean Wind SpeedMPH, Max Gust SpeedMPH,PrecipitationIn, CloudCover, Events, WindDirDegrees
2013-2-1,59,37,15,28,22,14,93,66,29,30.31,30.18,30.01,10,10,10,20,6,26,0.00,0,,181
2013-2-2,59,41,23,30,24,19,93,59,23,30.35,30.28,30.14,10,10,10,16,6,20,0.00,0,,284
2013-2-3,62,45,28,36,24,16,75,48,17,30.30,30.09,29.82,10,10,10,29,9,36,0.00,0,,214
2013-2-4,59,47,35,36,24,21,70,44,23,29.99,29.92,29.79,10,10,10,18,9,23,0.00,0,,24
2013-2-5,64,45,26,28,23,21,80,48,20,30.03,29.97,29.91,10,10,10,15,4,20,0.00,0,,110
2013-2-6,73,56,39,43,35,21,100,57,14,29.99,29.85,29.71,10,10,3,26,13,36,0.00,2,,190
2013-2-7,57,44,30,41,27,21,87,50,27,30.22,30.03,29.74,10,10,10,30,12,37,0.00,2,,358
2013-2-8,55,38,21,27,20,14,93,50,24,30.24,30.15,30.03,10,10,10,21,8,26,0.00,0,,181
2013-2-9,60,48,37,45,26,9,82,45,22,30.01,29.75,29.50,10,10,10,32,13,45,0.00,2,,173
2013-2-10,53,42,32,21,16,9,55,35,21,30.05,29.80,29.60,10,10,10,25,15,36,0.00,0,,304
2013-2-11,48,34,21,23,19,16,86,58,32,30.20,30.10,30.01,10,10,10,10,4,18,0.00,1,,78
2013-2-12,33,28,24,32,30,23,100,96,70,30.10,30.04,29.99,10,5,0,12,7,,0.18,6,Rain-Snow,3
2013-2-13,41,30,19,32,25,18,100,83,60,30.07,30.02,29.95,10,10,10,14,8,,0.00,0,,227
2013-2-14,46,34,21,34,28,19,100,80,57,30.30,30.10,30.00,10,10,7,22,6,28,0.00,2,,358
2013-2-15,44,37,30,32,27,23,87,70,43,30.40,30.33,30.25,10,10,10,16,7,22,0.00,6,,29
2013-2-16,60,42,23,32,26,19,100,67,20,30.39,30.21,30.03,10,10,10,18,8,25,0.00,0,,245
2013-2-17,69,48,26,30,25,16,87,50,16,30.02,29.80,29.57,10,10,10,22,7,31,0.00,0,,215
2013-2-18,51,40,28,27,20,12,69,44,22,30.13,29.89,29.56,10,10,10,25,15,34,0.00,1,,325
2013-2-19,53,37,21,28,21,18,93,55,26,30.23,30.13,30.01,10,10,10,24,7,31,0.00,1,,158
2013-2-20,41,37,33,37,33,23,100,88,49,30.01,29.87,29.75,10,9,2,26,14,32,0.00,8,Rain,141
2013-2-21,32,23,14,32,25,12,100,92,74,29.97,29.75,29.55,10,7,0,18,10,26,0.26,6,Rain-Snow,5
2013-2-22,33,20,8,25,18,7,93,80,64,30.08,30.02,29.97,10,10,10,13,4,,0.00,2,,271
2013-2-23,46,35,24,36,30,23,93,83,66,30.01,29.88,29.74,10,10,7,17,7,21,0.00,5,,183
2013-2-24,48,39,30,32,30,28,93,83,50,29.87,29.73,29.67,10,9,1,24,9,29,0.00,3,Snow,349
2013-2-25,32,30,28,32,29,23,100,93,80,29.89,29.81,29.74,10,6,1,39,21,50,0.00,7,Snow,360
2013-2-26,39,26,14,27,23,12,93,78,56,29.95,29.86,29.79,10,10,10,15,7,,0.00,1,,311
2013-2-27,44,35,26,32,28,23,100,77,53,30.25,30.15,29.95,10,10,3,21,9,26,0.00,1,Snow,323
2013-2-28,50,37,24,27,22,18,93,64,30,30.30,30.25,30.19,10,10,10,15,7,22,0.00,1,,266